createdAt,value
2018-01-11T00:32:21.765Z,8.21
2018-01-11T00:33:21.656Z,8.17
2018-01-11T00:35:29.670Z,8.20
2018-01-11T00:36:29.488Z,8.21
2018-01-11T00:38:35.450Z,8.21
2018-01-11T00:39:35.358Z,8.16
2018-01-11T00:41:51.200Z,8.21
2018-01-11T00:42:51.171Z,8.16
2018-01-11T00:44:55.968Z,8.23
2018-01-11T00:45:55.907Z,8.20
2018-01-11T00:46:55.894Z,8.24
2018-01-11T00:47:55.704Z,8.17
2018-01-11T00:48:55.735Z,8.16
2018-01-11T00:49:55.686Z,8.12
2018-01-11T00:50:55.680Z,8.17
2018-01-11T00:51:55.572Z,8.20
2018-01-11T00:52:55.542Z,8.13
2018-01-11T00:53:55.522Z,8.16
2018-01-11T00:54:55.494Z,8.16
2018-01-11T00:55:55.454Z,8.17
2018-01-11T00:56:55.432Z,8.17
2018-01-11T00:57:55.401Z,8.13
2018-01-11T00:58:55.399Z,8.19
2018-01-11T00:59:55.347Z,8.19
2018-01-11T01:00:55.318Z,8.13
2018-01-11T01:01:55.297Z,8.09
2018-01-11T01:02:55.272Z,8.04
2018-01-11T01:03:55.233Z,8.02
2018-01-11T01:04:55.251Z,8.01
2018-01-11T01:05:55.175Z,7.96
2018-01-11T01:06:55.154Z,8.01
2018-01-11T01:07:55.123Z,8.10
2018-01-11T01:08:55.102Z,8.05
2018-01-11T01:09:56.949Z,8.13
2018-01-11T01:10:55.081Z,8.06
2018-01-11T01:11:55.012Z,8.09
2018-01-11T01:12:54.994Z,8.10
2018-01-11T01:13:55.084Z,8.12
2018-01-11T01:14:56.912Z,8.06
2018-01-11T01:15:54.890Z,8.12
2018-01-11T01:16:56.488Z,8.06
2018-01-11T01:17:54.834Z,8.10
2018-01-11T01:18:57.401Z,8.10
2018-01-11T01:19:56.417Z,8.10
2018-01-11T01:20:54.768Z,8.13
2018-01-11T01:21:54.721Z,8.06
2018-01-11T01:22:54.685Z,8.04
2018-01-11T01:23:54.666Z,8.02
2018-01-11T01:24:54.638Z,7.91
2018-01-11T01:25:54.612Z,7.96
2018-01-11T01:26:54.579Z,7.96
2018-01-11T01:27:57.398Z,7.98
2018-01-11T01:28:54.526Z,8.01
2018-01-11T01:29:54.504Z,7.96
2018-01-11T01:30:54.485Z,7.96
2018-01-11T01:31:54.435Z,7.95
2018-01-11T01:32:54.410Z,7.91
2018-01-11T01:33:54.376Z,7.88
2018-01-11T01:34:54.349Z,7.84
2018-01-11T01:35:54.326Z,7.83
2018-01-11T01:36:54.297Z,7.84
2018-01-11T01:37:56.932Z,7.71
2018-01-11T01:38:54.234Z,7.76
2018-01-11T01:39:54.199Z,7.64
2018-01-11T01:40:54.183Z,7.77
2018-01-11T01:41:54.147Z,7.78
2018-01-11T01:42:54.116Z,7.76
2018-01-11T01:43:55.901Z,7.74
2018-01-11T01:44:54.066Z,7.78
2018-01-11T01:45:54.090Z,7.66
2018-01-11T01:46:54.030Z,7.61
2018-01-11T01:47:53.980Z,7.62
2018-01-11T01:48:56.956Z,7.60
2018-01-11T01:49:53.920Z,7.54
2018-01-11T01:50:53.893Z,7.60
2018-01-11T01:51:53.865Z,7.54
2018-01-11T01:52:53.838Z,7.55
2018-01-11T01:53:53.865Z,7.58
2018-01-11T01:54:53.773Z,7.58
2018-01-11T01:55:53.745Z,7.62
2018-01-11T01:56:53.715Z,7.55
2018-01-11T01:57:56.412Z,7.55
2018-01-11T01:58:53.668Z,7.64
2018-01-11T01:59:53.632Z,7.61
2018-01-11T02:00:55.476Z,7.69
2018-01-11T02:01:53.573Z,7.55
2018-01-11T02:02:53.570Z,7.55
2018-01-11T02:03:53.527Z,7.54
2018-01-11T02:04:53.490Z,7.57
2018-01-11T02:05:53.456Z,7.61
2018-01-11T02:06:53.429Z,7.64
2018-01-11T02:07:55.972Z,7.64
2018-01-11T02:08:53.371Z,7.64
2018-01-11T02:09:53.349Z,7.62
2018-01-11T02:10:53.391Z,7.60
2018-01-11T02:11:53.324Z,7.55
2018-01-11T02:12:53.258Z,7.55
2018-01-11T02:13:53.236Z,7.69
2018-01-11T02:14:53.206Z,7.68
2018-01-11T02:15:53.210Z,7.64
2018-01-11T02:16:54.912Z,7.62
2018-01-11T02:17:53.112Z,7.64
2018-01-11T02:19:05.354Z,7.57
2018-01-11T02:20:56.632Z,7.47
2018-01-11T02:21:56.472Z,7.49
2018-01-11T02:24:00.887Z,7.50
2018-01-11T02:25:00.744Z,7.44
2018-01-11T02:27:08.647Z,7.44
2018-01-11T02:28:08.651Z,7.52
2018-01-11T02:30:13.040Z,7.47
2018-01-11T02:31:12.988Z,7.50
2018-01-11T02:33:31.883Z,7.57
2018-01-11T02:34:31.745Z,7.54
2018-01-11T02:36:39.648Z,7.49
2018-01-11T02:37:39.516Z,7.46
2018-01-11T02:39:42.473Z,7.42
2018-01-11T02:40:42.406Z,7.44
2018-01-11T02:42:48.182Z,7.46
2018-01-11T02:43:48.358Z,7.47
2018-01-11T02:45:48.574Z,7.60
2018-01-11T02:46:48.475Z,7.60
2018-01-11T02:48:54.386Z,7.60
2018-01-11T02:49:54.346Z,7.64
2018-01-11T02:51:58.712Z,7.54
2018-01-11T02:52:58.604Z,7.55
2018-01-11T02:55:02.027Z,7.60
2018-01-11T02:56:01.892Z,7.64
2018-01-11T02:58:18.372Z,7.76
2018-01-11T02:59:17.706Z,7.77
2018-01-11T03:01:21.188Z,7.84
2018-01-11T03:02:21.059Z,7.74
2018-01-11T03:04:24.994Z,7.81
2018-01-11T03:05:23.948Z,7.81
2018-01-11T03:07:28.351Z,7.77
2018-01-11T03:08:28.323Z,7.76
2018-01-11T03:10:47.137Z,7.68
2018-01-11T03:11:47.138Z,7.71
2018-01-11T03:13:49.946Z,7.69
2018-01-11T03:14:50.005Z,7.66
2018-01-11T03:17:02.943Z,7.62
2018-01-11T03:18:02.852Z,7.62
2018-01-11T03:20:10.777Z,7.69
2018-01-11T03:21:10.681Z,7.74
2018-01-11T03:23:26.986Z,7.60
2018-01-11T03:24:26.539Z,7.64
2018-01-11T03:26:39.439Z,7.81
2018-01-11T03:27:39.347Z,7.77
2018-01-11T03:30:01.241Z,7.81
2018-01-11T03:31:01.183Z,7.64
2018-01-11T03:33:05.534Z,7.61
2018-01-11T03:34:05.488Z,7.52
2018-01-11T03:36:18.359Z,7.43
2018-01-11T03:37:18.397Z,7.39
2018-01-11T03:39:21.120Z,7.29
2018-01-11T03:40:21.097Z,7.29
2018-01-11T03:42:33.891Z,7.11
2018-01-11T03:43:33.933Z,7.06
2018-01-11T03:45:39.827Z,7.04
2018-01-11T03:46:39.703Z,7.01
2018-01-11T03:48:34.372Z,6.89
2018-01-11T03:49:34.294Z,6.96
2018-01-11T03:51:42.243Z,7.03
2018-01-11T03:52:42.124Z,7.03
2018-01-11T03:54:49.927Z,7.16
2018-01-11T03:55:50.129Z,7.16
2018-01-11T03:57:47.956Z,7.28
2018-01-11T03:58:47.827Z,7.29
2018-01-11T04:01:07.654Z,7.33
2018-01-11T04:02:07.631Z,7.37
2018-01-11T04:04:08.010Z,7.44
2018-01-11T04:05:08.112Z,7.50
2018-01-11T04:07:15.730Z,7.46
2018-01-11T04:08:15.936Z,7.58
2018-01-11T04:10:26.192Z,7.62
2018-01-11T04:11:26.046Z,7.49
2018-01-11T04:13:28.841Z,7.47
2018-01-11T04:14:28.865Z,7.39
2018-01-11T04:16:39.299Z,7.36
2018-01-11T04:17:39.245Z,7.40
2018-01-11T04:19:52.071Z,7.34
2018-01-11T04:20:52.017Z,7.33
2018-01-11T04:23:03.570Z,7.25
2018-01-11T04:24:03.596Z,7.15
2018-01-11T04:26:07.931Z,7.21
2018-01-11T04:27:07.748Z,7.19
2018-01-11T04:29:12.316Z,7.19
2018-01-11T04:30:12.282Z,7.21
2018-01-11T04:31:12.028Z,7.21
2018-01-11T04:32:12.129Z,7.18
2018-01-11T04:33:11.993Z,7.21
2018-01-11T04:34:11.906Z,7.21
2018-01-11T04:35:11.889Z,7.13
2018-01-11T04:36:11.850Z,7.18
2018-01-11T04:37:11.870Z,7.13
2018-01-11T04:38:11.797Z,7.11
2018-01-11T04:39:11.767Z,7.08
2018-01-11T04:40:11.734Z,7.10
2018-01-11T04:41:11.702Z,7.21
2018-01-11T04:42:11.678Z,7.22
2018-01-11T04:43:11.726Z,7.29
2018-01-11T04:44:11.613Z,7.18
2018-01-11T04:45:11.587Z,7.11
2018-01-11T04:46:11.553Z,7.26
2018-01-11T04:47:11.539Z,7.40
2018-01-11T04:48:12.080Z,7.29
2018-01-11T04:49:11.468Z,7.39
2018-01-11T04:50:11.445Z,7.33
2018-01-11T04:51:11.464Z,7.36
2018-01-11T04:52:11.389Z,7.34
2018-01-11T04:53:11.357Z,7.31
2018-01-11T04:54:11.331Z,7.40
2018-01-11T04:55:11.301Z,7.39
2018-01-11T04:56:11.276Z,7.34
2018-01-11T04:57:11.272Z,7.34
2018-01-11T04:58:11.213Z,7.34
2018-01-11T04:59:11.187Z,7.37
2018-01-11T05:00:11.170Z,7.39
2018-01-11T05:01:11.123Z,7.39
2018-01-11T05:02:11.092Z,7.28
2018-01-11T05:03:11.062Z,7.26
2018-01-11T05:04:11.038Z,7.40
2018-01-11T05:05:11.052Z,7.29
2018-01-11T05:06:10.982Z,7.40
2018-01-11T05:07:10.959Z,7.42
2018-01-11T05:08:11.053Z,7.34
2018-01-11T05:09:10.896Z,7.36
2018-01-11T05:10:10.860Z,7.39
2018-01-11T05:11:10.835Z,7.29
2018-01-11T05:12:10.805Z,7.26
2018-01-11T05:13:10.800Z,7.29
2018-01-11T05:14:10.747Z,7.28
2018-01-11T05:15:10.738Z,7.25
2018-01-11T05:16:10.701Z,7.28
2018-01-11T05:17:10.668Z,7.36
2018-01-11T05:18:10.634Z,7.33
2018-01-11T05:19:10.610Z,7.39
2018-01-11T05:20:10.584Z,7.36
2018-01-11T05:21:10.563Z,7.42
2018-01-11T05:22:10.521Z,7.39
2018-01-11T05:23:10.488Z,7.33
2018-01-11T05:24:10.583Z,7.31
2018-01-11T05:25:10.577Z,7.28
2018-01-11T05:26:10.401Z,7.28
2018-01-11T05:27:10.393Z,7.28
2018-01-11T05:28:10.344Z,7.28
2018-01-11T05:29:10.389Z,7.28
2018-01-11T05:30:10.287Z,7.33
2018-01-11T05:31:10.256Z,7.37
2018-01-11T05:32:10.231Z,7.29
2018-01-11T05:33:10.206Z,7.31
2018-01-11T05:34:10.172Z,7.39
2018-01-11T05:35:10.168Z,7.37
2018-01-11T05:36:10.113Z,7.26
2018-01-11T05:37:10.086Z,7.31
2018-01-11T05:38:10.055Z,7.31
2018-01-11T05:39:10.055Z,7.21
2018-01-11T05:40:09.995Z,7.25
2018-01-11T05:41:09.976Z,7.28
2018-01-11T05:42:09.946Z,7.28
2018-01-11T05:43:09.926Z,7.33
2018-01-11T05:44:09.883Z,7.28
2018-01-11T05:45:09.855Z,7.39
2018-01-11T05:46:09.840Z,7.40
2018-01-11T05:47:09.809Z,7.39
2018-01-11T05:48:09.778Z,7.40
2018-01-11T05:49:09.742Z,7.31
2018-01-11T05:50:10.598Z,7.31
2018-01-11T05:51:09.681Z,7.33
2018-01-11T05:52:09.658Z,7.39
2018-01-11T05:53:09.627Z,7.25
2018-01-11T05:54:09.588Z,7.33
2018-01-11T05:55:09.563Z,7.42
2018-01-11T05:56:09.557Z,7.42
2018-01-11T05:57:09.508Z,7.49
2018-01-11T05:58:09.475Z,7.46
2018-01-11T05:59:09.510Z,7.47
2018-01-11T06:00:09.419Z,7.50
2018-01-11T06:01:09.391Z,7.50
2018-01-11T06:02:09.365Z,7.43
2018-01-11T06:03:09.337Z,7.47
2018-01-11T06:04:09.321Z,7.50
2018-01-11T06:05:09.281Z,7.44
2018-01-11T06:06:09.252Z,7.46
2018-01-11T06:07:09.222Z,7.44
2018-01-11T06:08:09.199Z,7.40
2018-01-11T06:09:09.167Z,7.36
2018-01-11T06:10:09.156Z,7.37
2018-01-11T06:11:09.106Z,7.46
2018-01-11T06:12:09.085Z,7.52
2018-01-11T06:13:09.128Z,7.54
2018-01-11T06:14:09.024Z,7.58
2018-01-11T06:15:08.995Z,7.54
2018-01-11T06:16:08.988Z,7.46
2018-01-11T06:17:08.930Z,7.52
2018-01-11T06:18:08.899Z,7.50
2018-01-11T06:19:08.880Z,7.55
2018-01-11T06:20:08.844Z,7.46
2018-01-11T06:21:08.814Z,7.37
2018-01-11T06:22:08.870Z,7.43
2018-01-11T06:23:08.761Z,7.40
2018-01-11T06:24:08.854Z,7.52
2018-01-11T06:25:08.770Z,7.36
2018-01-11T06:26:08.674Z,7.50
2018-01-11T06:27:08.678Z,7.37
2018-01-11T06:28:08.627Z,7.49
2018-01-11T06:29:08.589Z,7.37
2018-01-11T06:30:08.562Z,7.36
2018-01-11T06:31:08.531Z,7.39
2018-01-11T06:32:08.504Z,7.50
2018-01-11T06:33:08.466Z,7.47
2018-01-11T06:34:08.471Z,7.50
2018-01-11T06:35:08.556Z,7.52
2018-01-11T06:36:08.381Z,7.47
2018-01-11T06:37:08.355Z,7.43
2018-01-11T06:38:08.326Z,7.44
2018-01-11T06:39:08.317Z,7.50
2018-01-11T06:40:08.262Z,7.50
2018-01-11T06:41:08.333Z,7.46
2018-01-11T06:42:08.238Z,7.49
2018-01-11T06:43:08.184Z,7.42
2018-01-11T06:44:08.161Z,7.50
2018-01-11T06:45:08.130Z,7.46
2018-01-11T06:46:08.097Z,7.55
2018-01-11T06:47:08.082Z,7.46
2018-01-11T06:48:08.038Z,7.52
2018-01-11T06:49:08.012Z,7.52
2018-01-11T06:50:08.074Z,7.55
2018-01-11T06:51:07.949Z,7.43
2018-01-11T06:52:07.918Z,7.47
2018-01-11T06:53:07.893Z,7.44
2018-01-11T06:54:07.866Z,7.33
2018-01-11T06:55:07.873Z,7.37
2018-01-11T06:56:07.816Z,7.36
2018-01-11T06:57:07.777Z,7.43
2018-01-11T06:58:07.752Z,7.39
2018-01-11T06:59:07.793Z,7.34
2018-01-11T07:00:07.734Z,7.33
2018-01-11T07:01:07.746Z,7.42
2018-01-11T07:02:07.708Z,7.34
2018-01-11T07:03:07.698Z,7.40
2018-01-11T07:04:07.732Z,7.34
2018-01-11T07:05:07.721Z,7.36
2018-01-11T07:06:07.536Z,7.37
2018-01-11T07:07:07.489Z,7.28
2018-01-11T07:08:07.469Z,7.28
2018-01-11T07:09:07.433Z,7.39
2018-01-11T07:10:07.430Z,7.37
2018-01-11T07:11:07.379Z,7.43
2018-01-11T07:12:07.366Z,7.40
2018-01-11T07:13:07.337Z,7.39
2018-01-11T07:14:07.343Z,7.33
2018-01-11T07:15:07.261Z,7.29
2018-01-11T07:16:07.234Z,7.33
2018-01-11T07:17:07.207Z,7.39
2018-01-11T07:18:07.167Z,7.36
2018-01-11T07:19:07.175Z,7.31
2018-01-11T07:20:07.116Z,7.37
2018-01-11T07:21:07.086Z,7.37
2018-01-11T07:22:07.091Z,7.29
2018-01-11T07:23:07.097Z,7.42
2018-01-11T07:24:07.000Z,7.36
2018-01-11T07:25:07.000Z,7.40
2018-01-11T07:26:06.943Z,7.46
2018-01-11T07:27:06.921Z,7.49
2018-01-11T07:28:06.883Z,7.46
2018-01-11T07:29:06.852Z,7.50
2018-01-11T07:30:06.865Z,7.49
2018-01-11T07:31:06.842Z,7.43
2018-01-11T07:32:06.820Z,7.42
2018-01-11T07:33:06.752Z,7.42
2018-01-11T07:34:06.719Z,7.37
2018-01-11T07:35:06.680Z,7.43
2018-01-11T07:36:06.661Z,7.37
2018-01-11T07:37:06.708Z,7.40
2018-01-11T07:38:06.610Z,7.42
2018-01-11T07:39:06.578Z,7.40
2018-01-11T07:40:06.536Z,7.39
2018-01-11T07:41:06.511Z,7.47
2018-01-11T07:42:06.548Z,7.43
2018-01-11T07:43:06.464Z,7.49
2018-01-11T07:44:06.434Z,7.46
2018-01-11T07:45:06.401Z,7.46
2018-01-11T07:46:06.362Z,7.36
2018-01-11T07:47:06.344Z,7.39
2018-01-11T07:48:06.306Z,7.36
2018-01-11T07:49:06.274Z,7.37
2018-01-11T07:50:06.274Z,7.40
2018-01-11T07:51:06.328Z,7.33
2018-01-11T07:52:06.191Z,7.36
2018-01-11T07:53:06.213Z,7.34
2018-01-11T07:54:06.130Z,7.37
2018-01-11T07:55:06.105Z,7.40
2018-01-11T07:56:06.119Z,7.46
2018-01-11T07:57:06.047Z,7.46
2018-01-11T07:58:06.019Z,7.47
2018-01-11T07:59:05.995Z,7.55
2018-01-11T08:00:05.973Z,7.47
2018-01-11T08:01:05.930Z,7.47
2018-01-11T08:02:05.961Z,7.55
2018-01-11T08:03:05.868Z,7.57
2018-01-11T08:04:05.850Z,7.52
2018-01-11T08:05:05.810Z,7.54
2018-01-11T08:06:05.790Z,7.62
2018-01-11T08:07:05.773Z,7.64
2018-01-11T08:08:05.724Z,7.64
2018-01-11T08:09:05.697Z,7.58
2018-01-11T08:10:05.680Z,7.64
2018-01-11T08:11:05.642Z,7.66
2018-01-11T08:12:05.613Z,7.78
2018-01-11T08:13:05.652Z,7.69
2018-01-11T08:14:05.555Z,7.76
2018-01-11T08:15:05.531Z,7.74
2018-01-11T08:16:05.506Z,7.80
2018-01-11T08:17:05.474Z,7.80
2018-01-11T08:18:05.444Z,7.73
2018-01-11T08:19:05.435Z,7.77
2018-01-11T08:20:05.383Z,7.76
2018-01-11T08:21:05.356Z,7.77
2018-01-11T08:22:05.356Z,7.78
2018-01-11T08:23:05.298Z,7.77
2018-01-11T08:24:05.268Z,7.77
2018-01-11T08:25:05.298Z,7.80
2018-01-11T08:26:05.231Z,7.76
2018-01-11T08:27:05.180Z,7.78
2018-01-11T08:28:05.149Z,7.77
2018-01-11T08:29:05.133Z,7.78
2018-01-11T08:30:05.213Z,7.71
2018-01-11T08:31:05.065Z,7.84
2018-01-11T08:32:05.033Z,7.81
2018-01-11T08:33:05.019Z,7.81
2018-01-11T08:34:04.981Z,7.81
2018-01-11T08:35:04.954Z,7.81
2018-01-11T08:36:04.929Z,7.84
2018-01-11T08:37:04.913Z,7.69
2018-01-11T08:38:04.871Z,7.78
2018-01-11T08:39:04.842Z,7.69
2018-01-11T08:40:04.808Z,7.77
2018-01-11T08:41:04.777Z,7.71
2018-01-11T08:42:04.752Z,7.78
2018-01-11T08:43:04.782Z,7.81
2018-01-11T08:44:04.710Z,7.76
2018-01-11T08:45:04.799Z,7.84
2018-01-11T08:46:04.630Z,7.86
2018-01-11T08:47:04.603Z,7.84
2018-01-11T08:48:04.575Z,7.81
2018-01-11T08:49:04.544Z,7.87
2018-01-11T08:50:04.526Z,7.86
2018-01-11T08:51:04.499Z,7.80
2018-01-11T08:52:04.461Z,7.83
2018-01-11T08:53:04.433Z,7.81
2018-01-11T08:54:04.515Z,7.86
2018-01-11T08:55:04.378Z,7.78
2018-01-11T08:56:04.354Z,7.91
2018-01-11T08:57:04.319Z,7.87
2018-01-11T08:58:04.296Z,7.81
2018-01-11T08:59:04.267Z,7.86
2018-01-11T09:00:04.233Z,7.88
2018-01-11T09:01:04.200Z,7.84
2018-01-11T09:02:04.185Z,7.83
2018-01-11T09:03:04.168Z,7.86
2018-01-11T09:04:04.124Z,7.86
2018-01-11T09:05:04.096Z,7.86
2018-01-11T09:06:04.068Z,7.99
2018-01-11T09:07:04.039Z,8.02
2018-01-11T09:08:04.011Z,7.98
2018-01-11T09:09:04.048Z,8.16
2018-01-11T09:10:03.952Z,8.10
2018-01-11T09:11:03.919Z,8.16
2018-01-11T09:12:03.923Z,8.14
2018-01-11T09:13:03.881Z,8.24
2018-01-11T09:14:03.867Z,8.23
2018-01-11T09:15:03.805Z,8.16
2018-01-11T09:16:03.779Z,8.23
2018-01-11T09:17:03.768Z,8.17
2018-01-11T09:18:03.715Z,8.26
2018-01-11T09:19:03.699Z,8.23
2018-01-11T09:20:03.660Z,8.24
2018-01-11T09:21:03.647Z,8.31
2018-01-11T09:22:03.606Z,8.24
2018-01-11T09:23:03.593Z,8.26
2018-01-11T09:24:03.588Z,8.34
2018-01-11T09:25:03.535Z,8.46
2018-01-11T09:26:03.494Z,8.42
2018-01-11T09:27:03.469Z,8.44
2018-01-11T09:28:03.443Z,8.47
2018-01-11T09:29:03.406Z,8.49
2018-01-11T09:30:03.385Z,8.42
2018-01-11T09:31:03.359Z,8.47
2018-01-11T09:32:03.331Z,8.46
2018-01-11T09:33:03.291Z,8.47
2018-01-11T09:34:03.262Z,8.49
2018-01-11T09:35:03.264Z,8.47
2018-01-11T09:36:03.219Z,8.55
2018-01-11T09:37:03.181Z,8.50
2018-01-11T09:38:03.158Z,8.55
2018-01-11T09:39:03.152Z,8.56
2018-01-11T09:40:03.129Z,8.60
2018-01-11T09:41:03.073Z,8.60
2018-01-11T09:42:03.049Z,8.59
2018-01-11T09:43:03.012Z,8.57
2018-01-11T09:44:03.028Z,8.63
2018-01-11T09:45:02.961Z,8.67
2018-01-11T09:46:02.929Z,8.71
2018-01-11T09:47:02.897Z,8.74
2018-01-11T09:48:02.875Z,8.75
2018-01-11T09:49:02.843Z,8.74
2018-01-11T09:50:02.817Z,8.78
2018-01-11T09:51:02.786Z,8.80
2018-01-11T09:52:02.773Z,8.78
2018-01-11T09:53:02.725Z,8.90
2018-01-11T09:54:02.709Z,8.88
2018-01-11T09:55:02.718Z,8.89
2018-01-11T09:56:02.648Z,8.95
2018-01-11T09:57:02.622Z,8.92
2018-01-11T09:58:02.655Z,8.92
2018-01-11T09:59:02.564Z,8.93
2018-01-11T10:00:02.538Z,8.88
2018-01-11T10:01:02.528Z,8.81
2018-01-11T10:02:02.480Z,8.81
2018-01-11T10:03:02.448Z,8.80
2018-01-11T10:04:02.448Z,8.80
2018-01-11T10:05:02.408Z,8.81
2018-01-11T10:06:02.377Z,8.78
2018-01-11T10:07:02.336Z,8.99
2018-01-11T10:08:02.324Z,8.88
2018-01-11T10:09:02.305Z,9.01
2018-01-11T10:10:02.263Z,8.99
2018-01-11T10:11:02.241Z,8.99
2018-01-11T10:12:02.221Z,9.08
2018-01-11T10:13:02.173Z,9.03
2018-01-11T10:14:02.156Z,9.03
2018-01-11T10:15:02.117Z,9.04
2018-01-11T10:16:02.091Z,9.06
2018-01-11T10:17:02.068Z,9.04
2018-01-11T10:18:02.027Z,9.06
2018-01-11T10:19:02.003Z,9.03
2018-01-11T10:20:01.975Z,9.15
2018-01-11T10:21:01.951Z,9.11
2018-01-11T10:22:01.921Z,9.12
2018-01-11T10:23:01.896Z,9.14
2018-01-11T10:24:01.870Z,9.08
2018-01-11T10:25:01.835Z,9.16
2018-01-11T10:26:01.812Z,9.23
2018-01-11T10:27:01.790Z,9.26
2018-01-11T10:28:01.758Z,9.22
2018-01-11T10:29:01.743Z,9.22
2018-01-11T10:30:01.697Z,9.27
2018-01-11T10:31:01.676Z,9.23
2018-01-11T10:32:23.908Z,9.26
2018-01-11T10:34:12.295Z,9.18
2018-01-11T10:35:12.246Z,9.19
2018-01-11T10:37:15.547Z,9.19
2018-01-11T10:38:15.378Z,9.19
2018-01-11T10:40:23.471Z,9.19
2018-01-11T10:41:23.184Z,9.26
2018-01-11T10:43:27.676Z,9.18
2018-01-11T10:44:27.603Z,9.14
2018-01-11T10:46:35.394Z,9.08
2018-01-11T10:47:35.402Z,9.12
2018-01-11T10:49:38.376Z,9.15
2018-01-11T10:50:38.232Z,9.15
2018-01-11T10:52:45.094Z,9.27
2018-01-11T10:53:44.992Z,9.27
2018-01-11T10:55:50.923Z,9.26
2018-01-11T10:56:50.821Z,9.24
2018-01-11T10:58:51.212Z,9.23
2018-01-11T10:59:51.273Z,9.22
2018-01-11T11:01:56.592Z,9.22
2018-01-11T11:02:56.599Z,9.27
2018-01-11T11:05:12.930Z,9.30
2018-01-11T11:06:12.798Z,9.40
2018-01-11T11:08:19.191Z,9.42
2018-01-11T11:09:18.706Z,9.30
2018-01-11T11:11:24.592Z,9.32
2018-01-11T11:12:24.651Z,9.27
2018-01-11T11:13:24.487Z,9.30
2018-01-11T11:14:24.280Z,9.27
2018-01-11T11:15:24.200Z,9.27
2018-01-11T11:16:24.179Z,9.33
2018-01-11T11:17:24.147Z,9.44
2018-01-11T11:18:24.118Z,9.29
2018-01-11T11:19:24.110Z,9.30
2018-01-11T11:20:24.134Z,9.27
2018-01-11T11:21:24.040Z,9.19
2018-01-11T11:22:24.029Z,9.24
2018-01-11T11:23:23.984Z,9.18
2018-01-11T11:24:23.952Z,9.18
2018-01-11T11:25:24.914Z,9.23
2018-01-11T11:26:23.895Z,9.19
2018-01-11T11:27:23.877Z,9.23
2018-01-11T11:28:23.846Z,9.23
2018-01-11T11:29:23.810Z,9.14
2018-01-11T11:30:23.874Z,9.11
2018-01-11T11:31:23.762Z,9.16
2018-01-11T11:32:23.771Z,9.19
2018-01-11T11:33:23.710Z,9.08
2018-01-11T11:34:23.692Z,9.06
2018-01-11T11:35:23.651Z,9.06
2018-01-11T11:36:23.623Z,9.14
2018-01-11T11:37:23.598Z,9.16
2018-01-11T11:38:23.569Z,9.22
2018-01-11T11:39:23.537Z,9.30
2018-01-11T11:40:23.515Z,9.24
2018-01-11T11:41:23.479Z,9.12
2018-01-11T11:42:23.483Z,9.22
2018-01-11T11:43:23.432Z,9.23
2018-01-11T11:44:23.399Z,9.16
2018-01-11T11:45:23.383Z,9.15
2018-01-11T11:46:23.348Z,9.09
2018-01-11T11:47:23.318Z,9.11
2018-01-11T11:48:23.303Z,9.22
2018-01-11T11:49:26.000Z,9.18
2018-01-11T11:50:23.240Z,9.16
2018-01-11T11:51:23.215Z,9.15
2018-01-11T11:52:23.179Z,9.09
2018-01-11T11:53:23.223Z,9.14
2018-01-11T11:54:23.123Z,9.11
2018-01-11T11:55:23.100Z,9.16
2018-01-11T11:56:23.068Z,9.30
2018-01-11T11:57:23.043Z,9.18
2018-01-11T11:58:23.013Z,9.24
2018-01-11T11:59:22.988Z,9.32
2018-01-11T12:00:23.017Z,9.26
2018-01-11T12:01:22.980Z,9.19
2018-01-11T12:02:22.974Z,9.24
2018-01-11T12:03:22.875Z,9.14
2018-01-11T12:04:22.850Z,9.27
2018-01-11T12:05:22.822Z,9.26
2018-01-11T12:06:22.833Z,9.16
2018-01-11T12:07:22.763Z,9.15
2018-01-11T12:08:22.744Z,9.22
2018-01-11T12:09:22.706Z,9.29
2018-01-11T12:10:22.680Z,9.23
2018-01-11T12:11:22.716Z,9.24
2018-01-11T12:12:22.626Z,9.22
2018-01-11T12:13:22.604Z,9.29
2018-01-11T12:14:22.580Z,9.22
2018-01-11T12:15:22.550Z,9.27
2018-01-11T12:16:22.521Z,9.26
2018-01-11T12:17:22.492Z,9.37
2018-01-11T12:18:22.463Z,9.27
2018-01-11T12:19:22.437Z,9.27
2018-01-11T12:20:22.415Z,9.30
2018-01-11T12:21:24.940Z,9.22
2018-01-11T12:22:22.373Z,9.32
2018-01-11T12:23:22.324Z,9.30
2018-01-11T12:24:22.295Z,9.24
2018-01-11T12:25:22.266Z,9.24
2018-01-11T12:26:22.241Z,9.24
2018-01-11T12:27:22.214Z,9.26
2018-01-11T12:28:22.187Z,9.27
2018-01-11T12:29:22.168Z,9.29
2018-01-11T12:30:22.135Z,9.36
2018-01-11T12:31:24.935Z,9.26
2018-01-11T12:32:22.080Z,9.27
2018-01-11T12:33:22.053Z,9.30
2018-01-11T12:34:22.028Z,9.27
2018-01-11T12:35:22.000Z,9.32
2018-01-11T12:36:21.972Z,9.27
2018-01-11T12:37:21.954Z,9.30
2018-01-11T12:38:21.924Z,9.33
2018-01-11T12:39:21.882Z,9.23
2018-01-11T12:40:22.003Z,9.27
2018-01-11T12:41:21.826Z,9.30
2018-01-11T12:42:21.799Z,9.26
2018-01-11T12:43:21.772Z,9.29
2018-01-11T12:44:21.742Z,9.27
2018-01-11T12:45:23.448Z,9.26
2018-01-11T12:46:21.696Z,9.24
2018-01-11T12:47:21.665Z,9.27
2018-01-11T12:48:21.638Z,9.24
2018-01-11T12:49:21.604Z,9.30
2018-01-11T12:50:21.580Z,9.24
2018-01-11T12:51:21.559Z,9.26
2018-01-11T12:52:23.437Z,9.23
2018-01-11T12:53:21.506Z,9.27
2018-01-11T12:54:21.529Z,9.18
2018-01-11T12:55:21.449Z,9.30
2018-01-11T12:56:22.173Z,9.26
2018-01-11T12:57:21.397Z,9.27
2018-01-11T12:58:21.364Z,9.30
2018-01-11T12:59:21.343Z,9.24
2018-01-11T13:00:21.312Z,9.36
2018-01-11T13:01:21.276Z,9.40
2018-01-11T13:02:21.264Z,9.50
2018-01-11T13:03:21.225Z,9.45
2018-01-11T13:04:22.946Z,9.47
2018-01-11T13:05:21.202Z,9.45
2018-01-11T13:06:22.997Z,9.65
2018-01-11T13:07:21.111Z,9.63
2018-01-11T13:08:21.084Z,9.65
2018-01-11T13:09:21.071Z,9.55
2018-01-11T13:10:22.961Z,9.54
2018-01-11T13:11:21.009Z,9.55
2018-01-11T13:12:20.992Z,9.50
2018-01-11T13:13:20.953Z,9.54
2018-01-11T13:14:23.444Z,9.63
2018-01-11T13:15:20.929Z,9.75
2018-01-11T13:16:20.875Z,9.77
2018-01-11T13:17:23.441Z,9.62
2018-01-11T13:18:20.818Z,9.59
2018-01-11T13:19:20.782Z,9.63
2018-01-11T13:20:22.451Z,9.59
2018-01-11T13:21:20.732Z,9.45
2018-01-11T13:22:20.706Z,9.48
2018-01-11T13:23:20.724Z,9.44
2018-01-11T13:24:20.683Z,9.45
2018-01-11T13:25:20.624Z,9.45
2018-01-11T13:26:20.606Z,9.45
2018-01-11T13:27:20.574Z,9.45
2018-01-11T13:28:20.543Z,9.55
2018-01-11T13:29:20.631Z,9.48
2018-01-11T13:30:20.488Z,9.45
2018-01-11T13:31:20.496Z,9.42
2018-01-11T13:32:20.456Z,9.47
2018-01-11T13:33:20.415Z,9.41
2018-01-11T13:34:20.381Z,9.57
2018-01-11T13:35:20.365Z,9.66
2018-01-11T13:36:20.407Z,9.70
2018-01-11T13:37:20.325Z,9.57
2018-01-11T13:38:20.278Z,9.57
2018-01-11T13:39:20.267Z,9.66
2018-01-11T13:40:20.210Z,9.59
2018-01-11T13:41:20.246Z,9.60
2018-01-11T13:42:20.174Z,9.69
2018-01-11T13:43:20.139Z,9.78
2018-01-11T13:44:20.105Z,9.80
2018-01-11T13:45:20.083Z,9.88
2018-01-11T13:46:20.064Z,9.88
2018-01-11T13:47:20.038Z,9.83
2018-01-11T13:48:20.014Z,9.69
2018-01-11T13:49:19.979Z,9.75
2018-01-11T13:50:21.460Z,9.83
2018-01-11T13:51:19.928Z,9.69
2018-01-11T13:52:19.884Z,9.77
2018-01-11T13:53:19.861Z,9.78
2018-01-11T13:54:19.838Z,9.77
2018-01-11T13:55:19.818Z,9.80
2018-01-11T13:56:19.816Z,9.87
2018-01-11T13:57:19.750Z,9.75
2018-01-11T13:58:19.736Z,9.62
2018-01-11T13:59:19.712Z,9.62
2018-01-11T14:00:22.514Z,9.75
2018-01-11T14:01:19.647Z,9.62
2018-01-11T14:02:19.633Z,9.77
2018-01-11T14:03:19.593Z,9.70
2018-01-11T14:04:19.612Z,9.69
2018-01-11T14:05:19.572Z,9.77
2018-01-11T14:06:19.513Z,9.73
2018-01-11T14:07:21.453Z,9.81
2018-01-11T14:08:19.486Z,9.70
2018-01-11T14:09:19.432Z,9.57
2018-01-11T14:10:19.401Z,9.66
2018-01-11T14:11:19.388Z,9.59
2018-01-11T14:12:19.360Z,9.48
2018-01-11T14:13:19.327Z,9.47
2018-01-11T14:14:19.310Z,9.42
2018-01-11T14:15:19.277Z,9.45
2018-01-11T14:16:19.265Z,9.34
2018-01-11T14:17:19.217Z,9.42
2018-01-11T14:18:19.181Z,9.32
2018-01-11T14:19:19.157Z,9.30
2018-01-11T14:20:19.139Z,9.30
2018-01-11T14:21:19.102Z,9.29
2018-01-11T14:22:19.084Z,9.23
2018-01-11T14:23:19.050Z,9.27
2018-01-11T14:24:19.023Z,9.29
2018-01-11T14:25:18.998Z,9.30
2018-01-11T14:26:18.970Z,9.26
2018-01-11T14:27:19.000Z,9.29
2018-01-11T14:28:18.919Z,9.32
2018-01-11T14:29:18.885Z,9.29
2018-01-11T14:30:18.865Z,9.26
2018-01-11T14:31:18.824Z,9.29
2018-01-11T14:32:18.796Z,9.30
2018-01-11T14:33:18.779Z,9.30
2018-01-11T14:34:18.745Z,9.29
2018-01-11T14:35:18.719Z,9.26
2018-01-11T14:36:20.486Z,9.26
2018-01-11T14:37:18.671Z,9.24
2018-01-11T14:38:18.634Z,9.18
2018-01-11T14:39:18.605Z,9.26
2018-01-11T14:40:18.580Z,9.22
2018-01-11T14:41:18.553Z,9.24
2018-01-11T14:42:18.539Z,9.15
2018-01-11T14:43:18.497Z,9.24
2018-01-11T14:44:18.471Z,9.26
2018-01-11T14:45:18.437Z,9.16
2018-01-11T14:46:21.020Z,9.33
2018-01-11T14:47:18.408Z,9.30
2018-01-11T14:48:20.011Z,9.32
2018-01-11T14:49:18.335Z,9.37
2018-01-11T14:50:18.299Z,9.33
2018-01-11T14:51:18.273Z,9.23
2018-01-11T14:52:18.247Z,9.32
2018-01-11T14:53:18.227Z,9.30
2018-01-11T14:54:18.205Z,9.30
2018-01-11T14:55:18.170Z,9.30
2018-01-11T14:56:18.140Z,9.27